sensor_id;sensor_type;location;lat;lon;timestamp;P1;durP1;ratioP1;P2;durP2;ratioP2
4597;SDS011;62772;48.646;8.906;2024-01-06T00:00:22;11.37;;;6.43;;
4597;SDS011;62772;48.646;8.906;2024-01-06T00:05:23;11.13;;;6.30;;
4597;SDS011;62772;48.646;8.906;2024-01-06T00:10:23;11.90;;;6.73;;
4597;SDS011;62772;48.646;8.906;2024-01-06T00:15:24;21.40;;;10.60;;
4597;SDS011;62772;48.646;8.906;2024-01-06T00:20:24;28.97;;;11.77;;
4597;SDS011;62772;48.646;8.906;2024-01-06T00:25:24;21.90;;;11.10;;
4597;SDS011;62772;48.646;8.906;2024-01-06T00:30:25;19.67;;;9.90;;
4597;SDS011;62772;48.646;8.906;2024-01-06T00:35:25;18.73;;;10.33;;
4597;SDS011;62772;48.646;8.906;2024-01-06T00:40:26;20.17;;;10.47;;
4597;SDS011;62772;48.646;8.906;2024-01-06T00:45:26;20.77;;;11.90;;
4597;SDS011;62772;48.646;8.906;2024-01-06T00:50:27;19.97;;;10.50;;
4597;SDS011;62772;48.646;8.906;2024-01-06T00:55:27;26.60;;;11.60;;
4597;SDS011;62772;48.646;8.906;2024-01-06T01:00:28;18.23;;;10.73;;
4597;SDS011;62772;48.646;8.906;2024-01-06T01:05:28;18.27;;;10.73;;
4597;SDS011;62772;48.646;8.906;2024-01-06T01:10:28;20.87;;;11.97;;
4597;SDS011;62772;48.646;8.906;2024-01-06T01:15:29;24.27;;;11.53;;
4597;SDS011;62772;48.646;8.906;2024-01-06T01:20:29;22.00;;;11.00;;
4597;SDS011;62772;48.646;8.906;2024-01-06T01:25:30;18.47;;;10.67;;
4597;SDS011;62772;48.646;8.906;2024-01-06T01:30:30;17.80;;;10.53;;
4597;SDS011;62772;48.646;8.906;2024-01-06T01:35:32;20.33;;;11.03;;
4597;SDS011;62772;48.646;8.906;2024-01-06T01:40:32;18.63;;;9.00;;
4597;SDS011;62772;48.646;8.906;2024-01-06T01:45:33;20.00;;;10.53;;
4597;SDS011;62772;48.646;8.906;2024-01-06T01:50:33;20.50;;;9.77;;
4597;SDS011;62772;48.646;8.906;2024-01-06T01:55:34;15.33;;;8.40;;
4597;SDS011;62772;48.646;8.906;2024-01-06T02:00:34;16.10;;;7.40;;
4597;SDS011;62772;48.646;8.906;2024-01-06T02:05:35;11.27;;;7.03;;
4597;SDS011;62772;48.646;8.906;2024-01-06T02:10:35;12.23;;;6.93;;
4597;SDS011;62772;48.646;8.906;2024-01-06T02:15:36;11.67;;;6.27;;
4597;SDS011;62772;48.646;8.906;2024-01-06T02:20:37;16.97;;;7.37;;
4597;SDS011;62772;48.646;8.906;2024-01-06T02:25:38;10.93;;;6.43;;
4597;SDS011;62772;48.646;8.906;2024-01-06T02:30:39;12.10;;;5.93;;
4597;SDS011;62772;48.646;8.906;2024-01-06T02:35:39;13.10;;;6.33;;
4597;SDS011;62772;48.646;8.906;2024-01-06T02:40:40;14.50;;;6.63;;
4597;SDS011;62772;48.646;8.906;2024-01-06T02:45:41;11.60;;;6.70;;
4597;SDS011;62772;48.646;8.906;2024-01-06T02:50:41;18.03;;;6.40;;
4597;SDS011;62772;48.646;8.906;2024-01-06T02:55:41;9.97;;;5.80;;
4597;SDS011;62772;48.646;8.906;2024-01-06T03:00:42;13.87;;;6.20;;
4597;SDS011;62772;48.646;8.906;2024-01-06T03:05:42;9.70;;;6.67;;
4597;SDS011;62772;48.646;8.906;2024-01-06T03:10:43;8.53;;;5.90;;
4597;SDS011;62772;48.646;8.906;2024-01-06T03:15:43;12.13;;;6.20;;
4597;SDS011;62772;48.646;8.906;2024-01-06T03:20:44;10.40;;;6.10;;
4597;SDS011;62772;48.646;8.906;2024-01-06T03:25:44;9.30;;;5.87;;
4597;SDS011;62772;48.646;8.906;2024-01-06T03:30:44;9.43;;;5.70;;
4597;SDS011;62772;48.646;8.906;2024-01-06T03:35:45;10.73;;;5.63;;
4597;SDS011;62772;48.646;8.906;2024-01-06T03:40:45;7.90;;;5.37;;
4597;SDS011;62772;48.646;8.906;2024-01-06T03:45:46;9.73;;;5.80;;
4597;SDS011;62772;48.646;8.906;2024-01-06T03:50:46;10.03;;;5.53;;
4597;SDS011;62772;48.646;8.906;2024-01-06T03:55:47;7.10;;;4.70;;
4597;SDS011;62772;48.646;8.906;2024-01-06T04:00:47;9.07;;;4.73;;
4597;SDS011;62772;48.646;8.906;2024-01-06T04:05:47;13.80;;;5.73;;
4597;SDS011;62772;48.646;8.906;2024-01-06T04:10:48;8.77;;;4.80;;
4597;SDS011;62772;48.646;8.906;2024-01-06T04:15:48;9.53;;;5.17;;
4597;SDS011;62772;48.646;8.906;2024-01-06T04:20:49;6.70;;;4.40;;
4597;SDS011;62772;48.646;8.906;2024-01-06T04:25:49;14.03;;;5.60;;
4597;SDS011;62772;48.646;8.906;2024-01-06T04:30:50;8.50;;;5.23;;
4597;SDS011;62772;48.646;8.906;2024-01-06T04:35:51;7.97;;;4.63;;
4597;SDS011;62772;48.646;8.906;2024-01-06T04:40:52;11.53;;;5.47;;
4597;SDS011;62772;48.646;8.906;2024-01-06T04:45:52;8.53;;;5.30;;
4597;SDS011;62772;48.646;8.906;2024-01-06T04:50:52;9.60;;;5.13;;
4597;SDS011;62772;48.646;8.906;2024-01-06T04:55:53;8.73;;;5.10;;
4597;SDS011;62772;48.646;8.906;2024-01-06T05:00:54;9.80;;;5.00;;
4597;SDS011;62772;48.646;8.906;2024-01-06T05:05:54;12.00;;;6.07;;
4597;SDS011;62772;48.646;8.906;2024-01-06T05:10:54;13.57;;;6.43;;
4597;SDS011;62772;48.646;8.906;2024-01-06T05:15:55;12.47;;;6.33;;
4597;SDS011;62772;48.646;8.906;2024-01-06T05:20:55;8.83;;;4.97;;
4597;SDS011;62772;48.646;8.906;2024-01-06T05:25:57;7.93;;;5.33;;
4597;SDS011;62772;48.646;8.906;2024-01-06T05:30:57;9.20;;;4.90;;
4597;SDS011;62772;48.646;8.906;2024-01-06T05:35:57;11.80;;;4.97;;
4597;SDS011;62772;48.646;8.906;2024-01-06T05:40:58;9.30;;;4.80;;
4597;SDS011;62772;48.646;8.906;2024-01-06T05:45:58;14.37;;;5.30;;
4597;SDS011;62772;48.646;8.906;2024-01-06T05:50:59;8.07;;;5.00;;
4597;SDS011;62772;48.646;8.906;2024-01-06T05:55:59;6.90;;;4.73;;
4597;SDS011;62772;48.646;8.906;2024-01-06T06:01:00;8.30;;;5.30;;
4597;SDS011;62772;48.646;8.906;2024-01-06T06:06:00;7.80;;;5.03;;
4597;SDS011;62772;48.646;8.906;2024-01-06T06:11:01;6.70;;;4.90;;
4597;SDS011;62772;48.646;8.906;2024-01-06T06:16:01;8.60;;;4.70;;
4597;SDS011;62772;48.646;8.906;2024-01-06T06:21:03;10.07;;;4.50;;
4597;SDS011;62772;48.646;8.906;2024-01-06T06:26:07;11.03;;;4.97;;
4597;SDS011;62772;48.646;8.906;2024-01-06T06:31:08;9.20;;;4.80;;
4597;SDS011;62772;48.646;8.906;2024-01-06T06:36:08;9.13;;;4.60;;
4597;SDS011;62772;48.646;8.906;2024-01-06T06:41:08;7.70;;;4.83;;
4597;SDS011;62772;48.646;8.906;2024-01-06T06:46:09;5.93;;;4.20;;
4597;SDS011;62772;48.646;8.906;2024-01-06T06:51:09;10.67;;;5.07;;
4597;SDS011;62772;48.646;8.906;2024-01-06T06:56:11;8.10;;;5.13;;
4597;SDS011;62772;48.646;8.906;2024-01-06T07:01:13;9.53;;;5.30;;
4597;SDS011;62772;48.646;8.906;2024-01-06T07:06:15;15.53;;;6.60;;
4597;SDS011;62772;48.646;8.906;2024-01-06T07:11:15;11.93;;;6.50;;
4597;SDS011;62772;48.646;8.906;2024-01-06T07:16:18;8.90;;;4.90;;
4597;SDS011;62772;48.646;8.906;2024-01-06T07:21:19;9.40;;;5.30;;
4597;SDS011;62772;48.646;8.906;2024-01-06T07:26:19;11.60;;;4.73;;
4597;SDS011;62772;48.646;8.906;2024-01-06T07:31:19;9.20;;;4.90;;
4597;SDS011;62772;48.646;8.906;2024-01-06T07:36:20;6.67;;;4.73;;
4597;SDS011;62772;48.646;8.906;2024-01-06T07:41:21;9.87;;;5.77;;
4597;SDS011;62772;48.646;8.906;2024-01-06T07:46:22;7.13;;;4.40;;
4597;SDS011;62772;48.646;8.906;2024-01-06T07:51:22;12.43;;;5.03;;
4597;SDS011;62772;48.646;8.906;2024-01-06T07:56:23;14.47;;;5.97;;
4597;SDS011;62772;48.646;8.906;2024-01-06T08:01:23;21.10;;;11.57;;
4597;SDS011;62772;48.646;8.906;2024-01-06T08:06:24;18.57;;;10.73;;
4597;SDS011;62772;48.646;8.906;2024-01-06T08:11:25;13.87;;;7.60;;
4597;SDS011;62772;48.646;8.906;2024-01-06T08:16:26;8.90;;;5.43;;
4597;SDS011;62772;48.646;8.906;2024-01-06T08:21:26;12.10;;;5.53;;
4597;SDS011;62772;48.646;8.906;2024-01-06T08:26:27;9.57;;;5.20;;
4597;SDS011;62772;48.646;8.906;2024-01-06T08:31:27;7.73;;;4.20;;
4597;SDS011;62772;48.646;8.906;2024-01-06T08:36:28;11.00;;;5.23;;
4597;SDS011;62772;48.646;8.906;2024-01-06T08:41:28;8.33;;;4.40;;
4597;SDS011;62772;48.646;8.906;2024-01-06T08:46:29;6.37;;;4.30;;
4597;SDS011;62772;48.646;8.906;2024-01-06T08:51:30;5.60;;;3.73;;
4597;SDS011;62772;48.646;8.906;2024-01-06T08:56:31;6.80;;;4.80;;
4597;SDS011;62772;48.646;8.906;2024-01-06T09:01:32;5.13;;;3.90;;
4597;SDS011;62772;48.646;8.906;2024-01-06T09:06:36;6.83;;;4.47;;
4597;SDS011;62772;48.646;8.906;2024-01-06T09:11:36;8.37;;;4.83;;
4597;SDS011;62772;48.646;8.906;2024-01-06T09:16:36;9.70;;;5.73;;
4597;SDS011;62772;48.646;8.906;2024-01-06T09:21:37;17.97;;;7.90;;
4597;SDS011;62772;48.646;8.906;2024-01-06T09:26:37;9.37;;;5.53;;
4597;SDS011;62772;48.646;8.906;2024-01-06T09:31:38;4.77;;;3.27;;
4597;SDS011;62772;48.646;8.906;2024-01-06T09:36:39;10.00;;;4.63;;
4597;SDS011;62772;48.646;8.906;2024-01-06T09:41:39;7.10;;;5.13;;
4597;SDS011;62772;48.646;8.906;2024-01-06T09:46:40;4.20;;;3.00;;
4597;SDS011;62772;48.646;8.906;2024-01-06T09:51:41;6.13;;;3.30;;
4597;SDS011;62772;48.646;8.906;2024-01-06T09:56:42;7.37;;;3.43;;
4597;SDS011;62772;48.646;8.906;2024-01-06T10:01:46;7.00;;;4.20;;
4597;SDS011;62772;48.646;8.906;2024-01-06T10:06:46;3.93;;;2.60;;
4597;SDS011;62772;48.646;8.906;2024-01-06T10:11:46;3.60;;;2.27;;
4597;SDS011;62772;48.646;8.906;2024-01-06T10:16:47;5.20;;;3.10;;
4597;SDS011;62772;48.646;8.906;2024-01-06T10:21:49;4.33;;;2.70;;
4597;SDS011;62772;48.646;8.906;2024-01-06T10:26:50;7.80;;;4.20;;
4597;SDS011;62772;48.646;8.906;2024-01-06T10:31:51;7.30;;;4.70;;
4597;SDS011;62772;48.646;8.906;2024-01-06T10:36:52;2.67;;;2.10;;
4597;SDS011;62772;48.646;8.906;2024-01-06T10:41:53;4.33;;;2.70;;
4597;SDS011;62772;48.646;8.906;2024-01-06T10:46:55;2.97;;;2.30;;
4597;SDS011;62772;48.646;8.906;2024-01-06T10:51:59;5.67;;;2.60;;
4597;SDS011;62772;48.646;8.906;2024-01-06T10:57:00;3.87;;;2.30;;
4597;SDS011;62772;48.646;8.906;2024-01-06T11:02:01;8.03;;;2.60;;
4597;SDS011;62772;48.646;8.906;2024-01-06T11:07:03;3.73;;;2.23;;
4597;SDS011;62772;48.646;8.906;2024-01-06T11:12:05;4.10;;;2.27;;
4597;SDS011;62772;48.646;8.906;2024-01-06T11:17:06;5.00;;;3.60;;
4597;SDS011;62772;48.646;8.906;2024-01-06T11:27:32;5.30;;;2.90;;
4597;SDS011;62772;48.646;8.906;2024-01-06T11:32:36;2.57;;;2.07;;
4597;SDS011;62772;48.646;8.906;2024-01-06T11:42:42;3.00;;;2.27;;
4597;SDS011;62772;48.646;8.906;2024-01-06T11:47:47;4.83;;;2.57;;
4597;SDS011;62772;48.646;8.906;2024-01-06T11:52:48;7.10;;;2.73;;
4597;SDS011;62772;48.646;8.906;2024-01-06T11:57:50;4.13;;;2.40;;
4597;SDS011;62772;48.646;8.906;2024-01-06T12:02:55;3.30;;;2.23;;
4597;SDS011;62772;48.646;8.906;2024-01-06T12:07:57;2.73;;;2.30;;
4597;SDS011;62772;48.646;8.906;2024-01-06T12:13:00;2.50;;;1.97;;
4597;SDS011;62772;48.646;8.906;2024-01-06T12:18:02;4.53;;;2.27;;
4597;SDS011;62772;48.646;8.906;2024-01-06T12:23:03;1.63;;;1.23;;
4597;SDS011;62772;48.646;8.906;2024-01-06T12:28:05;2.80;;;1.70;;
4597;SDS011;62772;48.646;8.906;2024-01-06T12:33:06;2.90;;;1.70;;
4597;SDS011;62772;48.646;8.906;2024-01-06T12:38:08;2.43;;;1.47;;
4597;SDS011;62772;48.646;8.906;2024-01-06T12:43:09;2.40;;;1.90;;
4597;SDS011;62772;48.646;8.906;2024-01-06T12:48:09;2.80;;;1.50;;
4597;SDS011;62772;48.646;8.906;2024-01-06T12:53:10;2.73;;;1.83;;
4597;SDS011;62772;48.646;8.906;2024-01-06T12:58:12;2.80;;;2.10;;
4597;SDS011;62772;48.646;8.906;2024-01-06T13:03:12;4.67;;;2.67;;
4597;SDS011;62772;48.646;8.906;2024-01-06T13:08:14;2.57;;;1.83;;
4597;SDS011;62772;48.646;8.906;2024-01-06T13:13:15;2.83;;;1.63;;
4597;SDS011;62772;48.646;8.906;2024-01-06T13:18:16;2.80;;;2.00;;
4597;SDS011;62772;48.646;8.906;2024-01-06T13:23:17;3.13;;;2.30;;
4597;SDS011;62772;48.646;8.906;2024-01-06T13:28:18;2.63;;;1.90;;
4597;SDS011;62772;48.646;8.906;2024-01-06T13:33:18;3.00;;;2.30;;
4597;SDS011;62772;48.646;8.906;2024-01-06T13:38:19;3.00;;;2.20;;
4597;SDS011;62772;48.646;8.906;2024-01-06T13:43:19;3.33;;;2.30;;
4597;SDS011;62772;48.646;8.906;2024-01-06T13:48:20;3.70;;;2.53;;
4597;SDS011;62772;48.646;8.906;2024-01-06T13:53:20;4.40;;;2.80;;
4597;SDS011;62772;48.646;8.906;2024-01-06T13:58:21;3.57;;;2.60;;
4597;SDS011;62772;48.646;8.906;2024-01-06T14:03:21;3.63;;;2.70;;
4597;SDS011;62772;48.646;8.906;2024-01-06T14:08:22;5.07;;;3.10;;
4597;SDS011;62772;48.646;8.906;2024-01-06T14:13:24;5.60;;;3.53;;
4597;SDS011;62772;48.646;8.906;2024-01-06T14:18:24;3.07;;;2.43;;
4597;SDS011;62772;48.646;8.906;2024-01-06T14:23:25;3.03;;;2.40;;
4597;SDS011;62772;48.646;8.906;2024-01-06T14:28:25;2.50;;;2.17;;
4597;SDS011;62772;48.646;8.906;2024-01-06T14:33:26;2.50;;;2.10;;
4597;SDS011;62772;48.646;8.906;2024-01-06T14:38:27;4.90;;;2.80;;
4597;SDS011;62772;48.646;8.906;2024-01-06T14:43:27;3.43;;;2.43;;
4597;SDS011;62772;48.646;8.906;2024-01-06T14:48:28;7.33;;;3.10;;
4597;SDS011;62772;48.646;8.906;2024-01-06T14:53:28;12.83;;;6.60;;
4597;SDS011;62772;48.646;8.906;2024-01-06T14:58:29;22.10;;;8.30;;
4597;SDS011;62772;48.646;8.906;2024-01-06T15:03:30;5.00;;;3.60;;
4597;SDS011;62772;48.646;8.906;2024-01-06T15:08:30;3.87;;;3.03;;
4597;SDS011;62772;48.646;8.906;2024-01-06T15:13:31;4.97;;;3.57;;
4597;SDS011;62772;48.646;8.906;2024-01-06T15:18:32;5.03;;;3.43;;
4597;SDS011;62772;48.646;8.906;2024-01-06T15:23:32;5.80;;;3.40;;
4597;SDS011;62772;48.646;8.906;2024-01-06T15:28:33;5.37;;;3.40;;
4597;SDS011;62772;48.646;8.906;2024-01-06T15:33:34;10.30;;;6.40;;
4597;SDS011;62772;48.646;8.906;2024-01-06T15:38:34;16.53;;;8.10;;
4597;SDS011;62772;48.646;8.906;2024-01-06T15:43:34;33.17;;;14.17;;
4597;SDS011;62772;48.646;8.906;2024-01-06T15:48:35;7.93;;;5.13;;
4597;SDS011;62772;48.646;8.906;2024-01-06T15:53:36;6.90;;;4.13;;
4597;SDS011;62772;48.646;8.906;2024-01-06T15:58:37;8.53;;;5.30;;
4597;SDS011;62772;48.646;8.906;2024-01-06T16:03:38;8.27;;;5.30;;
4597;SDS011;62772;48.646;8.906;2024-01-06T16:08:39;10.63;;;5.90;;
4597;SDS011;62772;48.646;8.906;2024-01-06T16:13:39;11.70;;;5.97;;
4597;SDS011;62772;48.646;8.906;2024-01-06T16:18:40;12.37;;;6.60;;
4597;SDS011;62772;48.646;8.906;2024-01-06T16:23:40;10.00;;;6.13;;
4597;SDS011;62772;48.646;8.906;2024-01-06T16:28:41;10.47;;;6.97;;
4597;SDS011;62772;48.646;8.906;2024-01-06T16:33:41;7.80;;;5.53;;
4597;SDS011;62772;48.646;8.906;2024-01-06T16:38:42;8.73;;;5.57;;
4597;SDS011;62772;48.646;8.906;2024-01-06T16:43:42;9.03;;;5.80;;
4597;SDS011;62772;48.646;8.906;2024-01-06T16:48:44;8.70;;;5.80;;
4597;SDS011;62772;48.646;8.906;2024-01-06T16:53:44;9.23;;;5.63;;
4597;SDS011;62772;48.646;8.906;2024-01-06T16:58:45;10.17;;;6.17;;
4597;SDS011;62772;48.646;8.906;2024-01-06T17:03:45;11.80;;;7.70;;
4597;SDS011;62772;48.646;8.906;2024-01-06T17:08:46;9.57;;;6.20;;
4597;SDS011;62772;48.646;8.906;2024-01-06T17:13:46;13.53;;;7.90;;
4597;SDS011;62772;48.646;8.906;2024-01-06T17:18:47;11.43;;;6.43;;
4597;SDS011;62772;48.646;8.906;2024-01-06T17:23:47;19.87;;;12.40;;
4597;SDS011;62772;48.646;8.906;2024-01-06T17:28:48;11.70;;;7.90;;
4597;SDS011;62772;48.646;8.906;2024-01-06T17:33:48;15.47;;;8.80;;
4597;SDS011;62772;48.646;8.906;2024-01-06T17:38:50;15.00;;;7.80;;
4597;SDS011;62772;48.646;8.906;2024-01-06T17:43:51;15.80;;;8.90;;
4597;SDS011;62772;48.646;8.906;2024-01-06T17:48:55;12.47;;;7.80;;
4597;SDS011;62772;48.646;8.906;2024-01-06T17:53:56;12.90;;;7.90;;
4597;SDS011;62772;48.646;8.906;2024-01-06T17:58:57;12.27;;;7.60;;
4597;SDS011;62772;48.646;8.906;2024-01-06T18:04:01;14.33;;;9.30;;
4597;SDS011;62772;48.646;8.906;2024-01-06T18:09:02;16.30;;;11.03;;
4597;SDS011;62772;48.646;8.906;2024-01-06T18:14:04;15.57;;;9.87;;
4597;SDS011;62772;48.646;8.906;2024-01-06T18:19:05;17.13;;;10.13;;
4597;SDS011;62772;48.646;8.906;2024-01-06T18:24:06;18.70;;;11.33;;
4597;SDS011;62772;48.646;8.906;2024-01-06T18:29:06;15.40;;;9.40;;
4597;SDS011;62772;48.646;8.906;2024-01-06T18:34:07;22.63;;;13.37;;
4597;SDS011;62772;48.646;8.906;2024-01-06T18:39:07;30.07;;;14.87;;
4597;SDS011;62772;48.646;8.906;2024-01-06T18:44:07;20.63;;;12.33;;
4597;SDS011;62772;48.646;8.906;2024-01-06T18:49:09;23.97;;;14.50;;
4597;SDS011;62772;48.646;8.906;2024-01-06T18:54:11;20.30;;;11.83;;
4597;SDS011;62772;48.646;8.906;2024-01-06T18:59:11;26.43;;;13.27;;
4597;SDS011;62772;48.646;8.906;2024-01-06T19:04:12;29.47;;;14.60;;
4597;SDS011;62772;48.646;8.906;2024-01-06T19:09:13;25.30;;;13.43;;
4597;SDS011;62772;48.646;8.906;2024-01-06T19:14:13;21.93;;;13.10;;
4597;SDS011;62772;48.646;8.906;2024-01-06T19:19:14;28.37;;;14.43;;
4597;SDS011;62772;48.646;8.906;2024-01-06T19:24:15;25.63;;;13.80;;
4597;SDS011;62772;48.646;8.906;2024-01-06T19:29:15;24.13;;;13.40;;
4597;SDS011;62772;48.646;8.906;2024-01-06T19:34:16;25.07;;;13.00;;
4597;SDS011;62772;48.646;8.906;2024-01-06T19:39:16;25.20;;;13.57;;
4597;SDS011;62772;48.646;8.906;2024-01-06T19:44:17;28.07;;;15.53;;
4597;SDS011;62772;48.646;8.906;2024-01-06T19:49:17;25.07;;;13.80;;
4597;SDS011;62772;48.646;8.906;2024-01-06T19:54:18;30.43;;;14.87;;
4597;SDS011;62772;48.646;8.906;2024-01-06T19:59:18;33.03;;;18.40;;
4597;SDS011;62772;48.646;8.906;2024-01-06T20:04:19;30.60;;;15.33;;
4597;SDS011;62772;48.646;8.906;2024-01-06T20:09:19;24.80;;;14.40;;
4597;SDS011;62772;48.646;8.906;2024-01-06T20:14:20;28.37;;;15.00;;
4597;SDS011;62772;48.646;8.906;2024-01-06T20:19:21;33.93;;;18.90;;
4597;SDS011;62772;48.646;8.906;2024-01-06T20:24:21;28.90;;;14.63;;
4597;SDS011;62772;48.646;8.906;2024-01-06T20:29:22;71.07;;;32.80;;
4597;SDS011;62772;48.646;8.906;2024-01-06T20:34:23;44.23;;;20.30;;
4597;SDS011;62772;48.646;8.906;2024-01-06T20:39:24;36.97;;;15.77;;
4597;SDS011;62772;48.646;8.906;2024-01-06T20:44:25;31.63;;;15.50;;
4597;SDS011;62772;48.646;8.906;2024-01-06T20:49:25;26.83;;;13.60;;
4597;SDS011;62772;48.646;8.906;2024-01-06T20:54:26;30.97;;;14.60;;
4597;SDS011;62772;48.646;8.906;2024-01-06T20:59:26;38.87;;;19.33;;
4597;SDS011;62772;48.646;8.906;2024-01-06T21:04:30;32.03;;;17.20;;
4597;SDS011;62772;48.646;8.906;2024-01-06T21:09:30;32.20;;;16.40;;
4597;SDS011;62772;48.646;8.906;2024-01-06T21:14:31;31.53;;;16.70;;
4597;SDS011;62772;48.646;8.906;2024-01-06T21:19:31;39.77;;;22.00;;
4597;SDS011;62772;48.646;8.906;2024-01-06T21:24:32;26.70;;;12.77;;
4597;SDS011;62772;48.646;8.906;2024-01-06T21:29:32;30.53;;;15.60;;
4597;SDS011;62772;48.646;8.906;2024-01-06T21:34:33;35.13;;;16.37;;
4597;SDS011;62772;48.646;8.906;2024-01-06T21:39:33;30.80;;;16.10;;
4597;SDS011;62772;48.646;8.906;2024-01-06T21:44:34;51.87;;;24.90;;
4597;SDS011;62772;48.646;8.906;2024-01-06T21:49:35;30.93;;;13.87;;
4597;SDS011;62772;48.646;8.906;2024-01-06T21:54:36;25.23;;;13.07;;
4597;SDS011;62772;48.646;8.906;2024-01-06T21:59:36;25.53;;;13.27;;
4597;SDS011;62772;48.646;8.906;2024-01-06T22:04:38;31.93;;;15.03;;
4597;SDS011;62772;48.646;8.906;2024-01-06T22:09:39;28.77;;;15.57;;
4597;SDS011;62772;48.646;8.906;2024-01-06T22:14:40;28.90;;;15.90;;
4597;SDS011;62772;48.646;8.906;2024-01-06T22:19:41;28.33;;;14.30;;
4597;SDS011;62772;48.646;8.906;2024-01-06T22:24:42;25.73;;;12.93;;
4597;SDS011;62772;48.646;8.906;2024-01-06T22:29:43;25.50;;;13.63;;
4597;SDS011;62772;48.646;8.906;2024-01-06T22:34:44;28.37;;;14.37;;
4597;SDS011;62772;48.646;8.906;2024-01-06T22:39:45;27.90;;;14.07;;
4597;SDS011;62772;48.646;8.906;2024-01-06T22:44:45;27.87;;;14.80;;
4597;SDS011;62772;48.646;8.906;2024-01-06T22:49:46;28.80;;;15.13;;
4597;SDS011;62772;48.646;8.906;2024-01-06T22:54:46;27.63;;;14.47;;
4597;SDS011;62772;48.646;8.906;2024-01-06T22:59:47;27.63;;;14.27;;
4597;SDS011;62772;48.646;8.906;2024-01-06T23:04:47;30.83;;;14.57;;
4597;SDS011;62772;48.646;8.906;2024-01-06T23:09:48;31.43;;;15.30;;
4597;SDS011;62772;48.646;8.906;2024-01-06T23:14:48;31.87;;;14.17;;
4597;SDS011;62772;48.646;8.906;2024-01-06T23:19:49;27.90;;;14.03;;
4597;SDS011;62772;48.646;8.906;2024-01-06T23:24:49;24.10;;;12.53;;
4597;SDS011;62772;48.646;8.906;2024-01-06T23:29:50;25.27;;;13.40;;
4597;SDS011;62772;48.646;8.906;2024-01-06T23:34:50;24.90;;;12.40;;
4597;SDS011;62772;48.646;8.906;2024-01-06T23:39:51;28.03;;;14.07;;
4597;SDS011;62772;48.646;8.906;2024-01-06T23:44:52;26.40;;;14.03;;
4597;SDS011;62772;48.646;8.906;2024-01-06T23:49:53;28.20;;;14.80;;
4597;SDS011;62772;48.646;8.906;2024-01-06T23:54:53;29.80;;;14.17;;
4597;SDS011;62772;48.646;8.906;2024-01-06T23:59:53;30.03;;;15.10;;
